sensor_id;sensor_type;location;lat;lon;timestamp;temperature;humidity
20829;DHT22;10575;50.124;8.582;2022-09-21T00:00:24;11.00;99.90
20829;DHT22;10575;50.124;8.582;2022-09-21T00:02:50;10.90;99.90
20829;DHT22;10575;50.124;8.582;2022-09-21T00:05:17;10.80;99.90
20829;DHT22;10575;50.124;8.582;2022-09-21T00:07:43;10.60;99.90
20829;DHT22;10575;50.124;8.582;2022-09-21T00:10:09;10.50;99.90
20829;DHT22;10575;50.124;8.582;2022-09-21T00:12:34;10.50;99.90
20829;DHT22;10575;50.124;8.582;2022-09-21T00:15:05;10.40;99.90
20829;DHT22;10575;50.124;8.582;2022-09-21T00:17:30;10.40;99.90
20829;DHT22;10575;50.124;8.582;2022-09-21T00:19:56;10.30;99.90
20829;DHT22;10575;50.124;8.582;2022-09-21T00:22:21;10.30;99.90
20829;DHT22;10575;50.124;8.582;2022-09-21T00:24:47;10.30;99.90
20829;DHT22;10575;50.124;8.582;2022-09-21T00:27:12;10.20;99.90
20829;DHT22;10575;50.124;8.582;2022-09-21T00:29:38;10.30;99.90
20829;DHT22;10575;50.124;8.582;2022-09-21T00:32:04;10.20;99.90
20829;DHT22;10575;50.124;8.582;2022-09-21T00:34:30;10.20;99.90
20829;DHT22;10575;50.124;8.582;2022-09-21T00:36:56;10.20;99.90
20829;DHT22;10575;50.124;8.582;2022-09-21T00:39:22;10.10;99.90
20829;DHT22;10575;50.124;8.582;2022-09-21T00:41:47;10.10;99.90
20829;DHT22;10575;50.124;8.582;2022-09-21T00:46:50;10.00;99.90
20829;DHT22;10575;50.124;8.582;2022-09-21T00:49:17;10.00;99.90
20829;DHT22;10575;50.124;8.582;2022-09-21T00:51:44;10.00;99.90
20829;DHT22;10575;50.124;8.582;2022-09-21T00:54:14;10.00;99.90
20829;DHT22;10575;50.124;8.582;2022-09-21T00:56:42;10.00;99.90
20829;DHT22;10575;50.124;8.582;2022-09-21T00:59:09;10.00;99.90
20829;DHT22;10575;50.124;8.582;2022-09-21T01:01:37;10.00;99.90
20829;DHT22;10575;50.124;8.582;2022-09-21T01:04:04;10.10;99.90
20829;DHT22;10575;50.124;8.582;2022-09-21T01:06:31;10.00;99.90
20829;DHT22;10575;50.124;8.582;2022-09-21T01:08:58;10.00;99.90
20829;DHT22;10575;50.124;8.582;2022-09-21T01:14:14;10.10;99.90
20829;DHT22;10575;50.124;8.582;2022-09-21T01:16:55;10.20;99.90
20829;DHT22;10575;50.124;8.582;2022-09-21T01:22:50;10.30;99.90
20829;DHT22;10575;50.124;8.582;2022-09-21T01:25:36;10.30;99.90
20829;DHT22;10575;50.124;8.582;2022-09-21T01:30:42;10.40;99.90
20829;DHT22;10575;50.124;8.582;2022-09-21T01:33:16;10.40;99.90
20829;DHT22;10575;50.124;8.582;2022-09-21T01:35:47;10.40;99.90
20829;DHT22;10575;50.124;8.582;2022-09-21T01:38:20;10.40;99.90
20829;DHT22;10575;50.124;8.582;2022-09-21T01:40:51;10.30;99.90
20829;DHT22;10575;50.124;8.582;2022-09-21T01:43:25;10.20;99.90
20829;DHT22;10575;50.124;8.582;2022-09-21T01:45:54;10.10;99.90
20829;DHT22;10575;50.124;8.582;2022-09-21T01:48:21;9.90;99.90
20829;DHT22;10575;50.124;8.582;2022-09-21T01:50:56;9.90;99.90
20829;DHT22;10575;50.124;8.582;2022-09-21T01:53:58;9.70;99.90
20829;DHT22;10575;50.124;8.582;2022-09-21T01:56:32;9.70;99.90
20829;DHT22;10575;50.124;8.582;2022-09-21T01:59:09;9.60;99.90
20829;DHT22;10575;50.124;8.582;2022-09-21T02:01:44;9.60;99.90
20829;DHT22;10575;50.124;8.582;2022-09-21T02:04:12;9.60;99.90
20829;DHT22;10575;50.124;8.582;2022-09-21T02:06:40;9.60;99.90
20829;DHT22;10575;50.124;8.582;2022-09-21T02:09:06;9.50;99.90
20829;DHT22;10575;50.124;8.582;2022-09-21T02:11:33;9.40;99.90
20829;DHT22;10575;50.124;8.582;2022-09-21T02:13:58;9.40;99.90
20829;DHT22;10575;50.124;8.582;2022-09-21T02:16:35;9.30;99.90
20829;DHT22;10575;50.124;8.582;2022-09-21T02:19:11;9.30;99.90
20829;DHT22;10575;50.124;8.582;2022-09-21T02:22:00;9.40;99.90
20829;DHT22;10575;50.124;8.582;2022-09-21T02:27:23;9.60;99.90
20829;DHT22;10575;50.124;8.582;2022-09-21T02:30:18;9.60;99.90
20829;DHT22;10575;50.124;8.582;2022-09-21T02:33:06;9.70;99.90
20829;DHT22;10575;50.124;8.582;2022-09-21T02:35:50;9.60;99.90
20829;DHT22;10575;50.124;8.582;2022-09-21T02:38:41;9.60;99.90
20829;DHT22;10575;50.124;8.582;2022-09-21T02:41:22;9.60;99.90
20829;DHT22;10575;50.124;8.582;2022-09-21T02:44:13;9.60;99.90
20829;DHT22;10575;50.124;8.582;2022-09-21T02:46:48;9.70;99.90
20829;DHT22;10575;50.124;8.582;2022-09-21T02:49:18;9.70;99.90
20829;DHT22;10575;50.124;8.582;2022-09-21T02:51:49;9.50;99.90
20829;DHT22;10575;50.124;8.582;2022-09-21T02:54:18;9.50;99.90
20829;DHT22;10575;50.124;8.582;2022-09-21T02:56:45;9.40;99.90
20829;DHT22;10575;50.124;8.582;2022-09-21T02:59:11;9.40;99.90
20829;DHT22;10575;50.124;8.582;2022-09-21T03:01:39;9.50;99.90
20829;DHT22;10575;50.124;8.582;2022-09-21T03:04:04;9.40;99.90
20829;DHT22;10575;50.124;8.582;2022-09-21T03:06:30;9.30;99.90
20829;DHT22;10575;50.124;8.582;2022-09-21T03:08:56;9.20;99.90
20829;DHT22;10575;50.124;8.582;2022-09-21T03:11:22;9.00;99.90
20829;DHT22;10575;50.124;8.582;2022-09-21T03:13:48;9.00;99.90
20829;DHT22;10575;50.124;8.582;2022-09-21T03:16:14;9.00;99.90
20829;DHT22;10575;50.124;8.582;2022-09-21T03:18:39;8.90;99.90
20829;DHT22;10575;50.124;8.582;2022-09-21T03:21:08;8.80;99.90
20829;DHT22;10575;50.124;8.582;2022-09-21T03:23:34;8.80;99.90
20829;DHT22;10575;50.124;8.582;2022-09-21T03:25:59;8.80;99.90
20829;DHT22;10575;50.124;8.582;2022-09-21T03:28:25;8.70;99.90
20829;DHT22;10575;50.124;8.582;2022-09-21T03:30:51;8.70;99.90
20829;DHT22;10575;50.124;8.582;2022-09-21T03:33:18;8.70;99.90
20829;DHT22;10575;50.124;8.582;2022-09-21T03:35:44;8.70;99.90
20829;DHT22;10575;50.124;8.582;2022-09-21T03:38:10;8.70;99.90
20829;DHT22;10575;50.124;8.582;2022-09-21T03:40:35;8.60;99.90
20829;DHT22;10575;50.124;8.582;2022-09-21T03:43:01;8.60;99.90
20829;DHT22;10575;50.124;8.582;2022-09-21T03:45:27;8.60;99.90
20829;DHT22;10575;50.124;8.582;2022-09-21T03:47:57;8.60;99.90
20829;DHT22;10575;50.124;8.582;2022-09-21T03:50:24;8.60;99.90
20829;DHT22;10575;50.124;8.582;2022-09-21T03:52:49;8.50;99.90
20829;DHT22;10575;50.124;8.582;2022-09-21T03:55:15;8.50;99.90
20829;DHT22;10575;50.124;8.582;2022-09-21T03:57:41;8.50;99.90
20829;DHT22;10575;50.124;8.582;2022-09-21T04:00:09;8.50;99.90
20829;DHT22;10575;50.124;8.582;2022-09-21T04:02:35;8.50;99.90
20829;DHT22;10575;50.124;8.582;2022-09-21T04:05:02;8.40;99.90
20829;DHT22;10575;50.124;8.582;2022-09-21T04:07:30;8.50;99.90
20829;DHT22;10575;50.124;8.582;2022-09-21T04:10:04;8.50;99.90
20829;DHT22;10575;50.124;8.582;2022-09-21T04:12:31;8.50;99.90
20829;DHT22;10575;50.124;8.582;2022-09-21T04:14:58;8.50;99.90
20829;DHT22;10575;50.124;8.582;2022-09-21T04:17:24;8.60;99.90
20829;DHT22;10575;50.124;8.582;2022-09-21T04:19:49;8.60;99.90
20829;DHT22;10575;50.124;8.582;2022-09-21T04:22:15;8.50;99.90
20829;DHT22;10575;50.124;8.582;2022-09-21T04:24:40;8.40;99.90
20829;DHT22;10575;50.124;8.582;2022-09-21T04:27:09;8.40;99.90
20829;DHT22;10575;50.124;8.582;2022-09-21T04:29:36;8.40;99.90
20829;DHT22;10575;50.124;8.582;2022-09-21T04:32:02;8.40;99.90
20829;DHT22;10575;50.124;8.582;2022-09-21T04:34:28;8.30;99.90
20829;DHT22;10575;50.124;8.582;2022-09-21T04:36:55;8.30;99.90
20829;DHT22;10575;50.124;8.582;2022-09-21T04:39:21;8.40;99.90
20829;DHT22;10575;50.124;8.582;2022-09-21T04:41:48;8.40;99.90
20829;DHT22;10575;50.124;8.582;2022-09-21T04:44:14;8.40;99.90
20829;DHT22;10575;50.124;8.582;2022-09-21T04:46:39;8.30;99.90
20829;DHT22;10575;50.124;8.582;2022-09-21T04:49:06;8.30;99.90
20829;DHT22;10575;50.124;8.582;2022-09-21T04:51:33;8.20;99.90
20829;DHT22;10575;50.124;8.582;2022-09-21T04:53:59;8.20;99.90
20829;DHT22;10575;50.124;8.582;2022-09-21T04:56:24;8.30;99.90
20829;DHT22;10575;50.124;8.582;2022-09-21T04:58:50;8.20;99.90
20829;DHT22;10575;50.124;8.582;2022-09-21T05:01:16;8.20;99.90
20829;DHT22;10575;50.124;8.582;2022-09-21T05:03:41;8.10;99.90
20829;DHT22;10575;50.124;8.582;2022-09-21T05:06:07;8.20;99.90
20829;DHT22;10575;50.124;8.582;2022-09-21T05:08:33;8.20;99.90
20829;DHT22;10575;50.124;8.582;2022-09-21T05:11:18;8.20;99.90
20829;DHT22;10575;50.124;8.582;2022-09-21T05:13:44;8.30;99.90
20829;DHT22;10575;50.124;8.582;2022-09-21T05:16:10;8.20;99.90
20829;DHT22;10575;50.124;8.582;2022-09-21T05:18:36;8.20;99.90
20829;DHT22;10575;50.124;8.582;2022-09-21T05:21:02;8.30;99.90
20829;DHT22;10575;50.124;8.582;2022-09-21T05:23:29;8.30;99.90
20829;DHT22;10575;50.124;8.582;2022-09-21T05:25:56;8.30;99.90
20829;DHT22;10575;50.124;8.582;2022-09-21T05:28:22;8.30;99.90
20829;DHT22;10575;50.124;8.582;2022-09-21T05:30:57;8.40;99.90
20829;DHT22;10575;50.124;8.582;2022-09-21T05:33:26;8.40;99.90
20829;DHT22;10575;50.124;8.582;2022-09-21T05:36:03;8.40;99.90
20829;DHT22;10575;50.124;8.582;2022-09-21T05:38:35;8.40;99.90
20829;DHT22;10575;50.124;8.582;2022-09-21T05:41:00;8.40;99.90
20829;DHT22;10575;50.124;8.582;2022-09-21T05:43:26;8.40;99.90
20829;DHT22;10575;50.124;8.582;2022-09-21T05:46:00;8.40;99.90
20829;DHT22;10575;50.124;8.582;2022-09-21T05:48:35;8.40;99.90
20829;DHT22;10575;50.124;8.582;2022-09-21T05:51:12;8.40;99.90
20829;DHT22;10575;50.124;8.582;2022-09-21T05:59:42;8.60;99.90
20829;DHT22;10575;50.124;8.582;2022-09-21T06:04:58;8.70;99.90
20829;DHT22;10575;50.124;8.582;2022-09-21T06:07:25;8.80;99.90
20829;DHT22;10575;50.124;8.582;2022-09-21T06:09:51;8.90;99.90
20829;DHT22;10575;50.124;8.582;2022-09-21T06:12:16;9.00;99.90
20829;DHT22;10575;50.124;8.582;2022-09-21T06:14:42;9.10;99.90
20829;DHT22;10575;50.124;8.582;2022-09-21T06:17:08;9.20;99.90
20829;DHT22;10575;50.124;8.582;2022-09-21T06:19:34;9.20;99.90
20829;DHT22;10575;50.124;8.582;2022-09-21T06:21:59;9.20;99.90
20829;DHT22;10575;50.124;8.582;2022-09-21T06:24:25;9.30;99.90
20829;DHT22;10575;50.124;8.582;2022-09-21T06:26:50;9.30;99.90
20829;DHT22;10575;50.124;8.582;2022-09-21T06:29:16;9.40;99.90
20829;DHT22;10575;50.124;8.582;2022-09-21T06:31:48;9.60;99.90
20829;DHT22;10575;50.124;8.582;2022-09-21T06:34:14;9.70;99.90
20829;DHT22;10575;50.124;8.582;2022-09-21T06:36:39;9.70;99.90
20829;DHT22;10575;50.124;8.582;2022-09-21T06:39:05;9.60;99.90
20829;DHT22;10575;50.124;8.582;2022-09-21T06:41:31;9.80;99.90
20829;DHT22;10575;50.124;8.582;2022-09-21T06:43:56;10.00;99.90
20829;DHT22;10575;50.124;8.582;2022-09-21T06:46:22;10.00;99.90
20829;DHT22;10575;50.124;8.582;2022-09-21T06:48:48;10.10;99.90
20829;DHT22;10575;50.124;8.582;2022-09-21T06:51:14;10.30;99.90
20829;DHT22;10575;50.124;8.582;2022-09-21T06:53:40;10.40;99.90
20829;DHT22;10575;50.124;8.582;2022-09-21T06:56:07;10.60;99.90
20829;DHT22;10575;50.124;8.582;2022-09-21T06:58:34;10.70;99.90
20829;DHT22;10575;50.124;8.582;2022-09-21T07:01:04;11.00;99.90
20829;DHT22;10575;50.124;8.582;2022-09-21T07:03:30;12.10;99.90
20829;DHT22;10575;50.124;8.582;2022-09-21T07:05:56;14.10;99.90
20829;DHT22;10575;50.124;8.582;2022-09-21T07:08:21;16.50;99.90
20829;DHT22;10575;50.124;8.582;2022-09-21T07:10:48;17.60;99.90
20829;DHT22;10575;50.124;8.582;2022-09-21T07:13:13;18.60;99.90
20829;DHT22;10575;50.124;8.582;2022-09-21T07:15:40;19.40;99.90
20829;DHT22;10575;50.124;8.582;2022-09-21T07:18:12;19.80;99.90
20829;DHT22;10575;50.124;8.582;2022-09-21T07:20:39;19.90;99.90
20829;DHT22;10575;50.124;8.582;2022-09-21T07:23:18;18.70;99.90
20829;DHT22;10575;50.124;8.582;2022-09-21T07:25:45;18.70;99.90
20829;DHT22;10575;50.124;8.582;2022-09-21T07:28:12;19.60;99.90
20829;DHT22;10575;50.124;8.582;2022-09-21T07:30:39;20.40;99.90
20829;DHT22;10575;50.124;8.582;2022-09-21T07:33:05;21.30;99.90
20829;DHT22;10575;50.124;8.582;2022-09-21T07:35:32;22.20;98.90
20829;DHT22;10575;50.124;8.582;2022-09-21T07:37:58;22.80;96.40
20829;DHT22;10575;50.124;8.582;2022-09-21T07:40:24;23.20;94.30
20829;DHT22;10575;50.124;8.582;2022-09-21T07:42:50;22.90;93.90
20829;DHT22;10575;50.124;8.582;2022-09-21T07:45:15;21.80;95.50
20829;DHT22;10575;50.124;8.582;2022-09-21T07:47:41;21.20;97.80
20829;DHT22;10575;50.124;8.582;2022-09-21T07:50:07;21.80;98.30
20829;DHT22;10575;50.124;8.582;2022-09-21T07:52:32;22.70;96.70
20829;DHT22;10575;50.124;8.582;2022-09-21T07:54:58;23.40;93.70
20829;DHT22;10575;50.124;8.582;2022-09-21T07:57:23;23.70;94.00
20829;DHT22;10575;50.124;8.582;2022-09-21T08:00:08;23.70;92.80
20829;DHT22;10575;50.124;8.582;2022-09-21T08:02:34;23.40;93.00
20829;DHT22;10575;50.124;8.582;2022-09-21T08:04:59;23.80;93.60
20829;DHT22;10575;50.124;8.582;2022-09-21T08:07:25;25.30;89.80
20829;DHT22;10575;50.124;8.582;2022-09-21T08:09:52;27.00;85.40
20829;DHT22;10575;50.124;8.582;2022-09-21T08:12:18;29.10;74.30
20829;DHT22;10575;50.124;8.582;2022-09-21T08:14:45;31.30;63.30
20829;DHT22;10575;50.124;8.582;2022-09-21T08:17:12;33.70;53.90
20829;DHT22;10575;50.124;8.582;2022-09-21T08:19:38;33.90;50.50
20829;DHT22;10575;50.124;8.582;2022-09-21T08:22:03;34.10;47.80
20829;DHT22;10575;50.124;8.582;2022-09-21T08:24:29;34.00;48.40
20829;DHT22;10575;50.124;8.582;2022-09-21T08:26:55;34.70;46.40
20829;DHT22;10575;50.124;8.582;2022-09-21T08:29:23;35.60;43.70
20829;DHT22;10575;50.124;8.582;2022-09-21T08:31:49;34.90;44.30
20829;DHT22;10575;50.124;8.582;2022-09-21T08:34:15;33.50;45.30
20829;DHT22;10575;50.124;8.582;2022-09-21T08:36:40;35.40;43.10
20829;DHT22;10575;50.124;8.582;2022-09-21T08:39:09;38.40;39.10
20829;DHT22;10575;50.124;8.582;2022-09-21T08:41:48;38.60;37.00
20829;DHT22;10575;50.124;8.582;2022-09-21T08:44:20;40.20;36.20
20829;DHT22;10575;50.124;8.582;2022-09-21T08:49:28;41.10;32.20
20829;DHT22;10575;50.124;8.582;2022-09-21T08:52:00;42.50;30.80
20829;DHT22;10575;50.124;8.582;2022-09-21T08:56:56;42.20;29.80
20829;DHT22;10575;50.124;8.582;2022-09-21T08:59:22;43.00;28.30
20829;DHT22;10575;50.124;8.582;2022-09-21T09:02:20;43.40;27.50
20829;DHT22;10575;50.124;8.582;2022-09-21T09:05:15;44.10;26.80
20829;DHT22;10575;50.124;8.582;2022-09-21T09:10:37;45.70;25.00
20829;DHT22;10575;50.124;8.582;2022-09-21T09:15:58;44.90;24.80
20829;DHT22;10575;50.124;8.582;2022-09-21T09:18:54;42.90;26.00
20829;DHT22;10575;50.124;8.582;2022-09-21T09:21:33;41.80;26.10
20829;DHT22;10575;50.124;8.582;2022-09-21T09:24:08;36.00;31.40
20829;DHT22;10575;50.124;8.582;2022-09-21T09:26:49;33.00;34.90
20829;DHT22;10575;50.124;8.582;2022-09-21T09:29:28;30.70;39.20
20829;DHT22;10575;50.124;8.582;2022-09-21T09:31:57;28.60;42.10
20829;DHT22;10575;50.124;8.582;2022-09-21T09:34:29;26.50;46.00
20829;DHT22;10575;50.124;8.582;2022-09-21T09:37:09;24.60;49.40
20829;DHT22;10575;50.124;8.582;2022-09-21T09:39:35;24.00;52.70
20829;DHT22;10575;50.124;8.582;2022-09-21T09:42:32;23.40;53.00
20829;DHT22;10575;50.124;8.582;2022-09-21T09:48:13;21.90;57.60
20829;DHT22;10575;50.124;8.582;2022-09-21T09:50:41;21.00;63.80
20829;DHT22;10575;50.124;8.582;2022-09-21T09:53:16;20.30;68.10
20829;DHT22;10575;50.124;8.582;2022-09-21T09:55:46;19.70;69.20
20829;DHT22;10575;50.124;8.582;2022-09-21T09:58:32;19.80;68.60
20829;DHT22;10575;50.124;8.582;2022-09-21T10:01:00;19.50;72.70
20829;DHT22;10575;50.124;8.582;2022-09-21T10:03:26;19.40;77.00
20829;DHT22;10575;50.124;8.582;2022-09-21T10:05:53;19.20;77.30
20829;DHT22;10575;50.124;8.582;2022-09-21T10:11:10;18.70;81.40
20829;DHT22;10575;50.124;8.582;2022-09-21T10:13:37;18.40;87.20
20829;DHT22;10575;50.124;8.582;2022-09-21T10:16:21;18.40;84.10
20829;DHT22;10575;50.124;8.582;2022-09-21T10:18:51;18.30;88.40
20829;DHT22;10575;50.124;8.582;2022-09-21T10:21:22;18.10;88.90
20829;DHT22;10575;50.124;8.582;2022-09-21T10:23:56;17.90;91.30
20829;DHT22;10575;50.124;8.582;2022-09-21T10:26:23;17.80;91.10
20829;DHT22;10575;50.124;8.582;2022-09-21T10:31:27;18.00;92.50
20829;DHT22;10575;50.124;8.582;2022-09-21T10:34:11;18.00;92.00
20829;DHT22;10575;50.124;8.582;2022-09-21T10:36:38;18.00;92.60
20829;DHT22;10575;50.124;8.582;2022-09-21T10:39:17;18.00;92.70
20829;DHT22;10575;50.124;8.582;2022-09-21T10:41:48;17.90;92.80
20829;DHT22;10575;50.124;8.582;2022-09-21T10:44:17;17.60;95.00
20829;DHT22;10575;50.124;8.582;2022-09-21T10:46:44;17.60;93.70
20829;DHT22;10575;50.124;8.582;2022-09-21T10:49:27;17.90;94.40
20829;DHT22;10575;50.124;8.582;2022-09-21T10:51:55;18.10;92.60
20829;DHT22;10575;50.124;8.582;2022-09-21T10:54:25;18.20;92.50
20829;DHT22;10575;50.124;8.582;2022-09-21T10:56:53;18.20;92.30
20829;DHT22;10575;50.124;8.582;2022-09-21T10:59:25;18.20;94.00
20829;DHT22;10575;50.124;8.582;2022-09-21T11:01:55;18.20;92.60
20829;DHT22;10575;50.124;8.582;2022-09-21T11:04:22;18.20;92.00
20829;DHT22;10575;50.124;8.582;2022-09-21T11:06:54;18.10;92.70
20829;DHT22;10575;50.124;8.582;2022-09-21T11:09:39;18.10;96.20
20829;DHT22;10575;50.124;8.582;2022-09-21T11:12:26;18.10;95.20
20829;DHT22;10575;50.124;8.582;2022-09-21T11:14:57;18.00;93.90
20829;DHT22;10575;50.124;8.582;2022-09-21T11:22:56;17.80;95.40
20829;DHT22;10575;50.124;8.582;2022-09-21T11:25:41;17.70;94.70
20829;DHT22;10575;50.124;8.582;2022-09-21T11:28:40;17.60;94.70
20829;DHT22;10575;50.124;8.582;2022-09-21T11:31:33;17.60;95.30
20829;DHT22;10575;50.124;8.582;2022-09-21T11:39:25;17.20;95.70
20829;DHT22;10575;50.124;8.582;2022-09-21T11:52:49;17.40;97.30
20829;DHT22;10575;50.124;8.582;2022-09-21T12:01:00;17.90;94.50
20829;DHT22;10575;50.124;8.582;2022-09-21T12:06:44;18.20;92.40
20829;DHT22;10575;50.124;8.582;2022-09-21T12:12:22;18.10;92.30
20829;DHT22;10575;50.124;8.582;2022-09-21T12:14:58;18.20;92.80
20829;DHT22;10575;50.124;8.582;2022-09-21T12:20:59;18.70;90.90
20829;DHT22;10575;50.124;8.582;2022-09-21T12:26:24;18.70;91.50
20829;DHT22;10575;50.124;8.582;2022-09-21T12:28:58;18.60;91.90
20829;DHT22;10575;50.124;8.582;2022-09-21T12:31:32;18.50;92.10
20829;DHT22;10575;50.124;8.582;2022-09-21T12:34:19;18.50;92.10
20829;DHT22;10575;50.124;8.582;2022-09-21T12:36:59;18.70;91.60
20829;DHT22;10575;50.124;8.582;2022-09-21T12:39:36;18.70;90.20
20829;DHT22;10575;50.124;8.582;2022-09-21T12:42:21;18.50;90.90
20829;DHT22;10575;50.124;8.582;2022-09-21T12:44:53;18.60;90.30
20829;DHT22;10575;50.124;8.582;2022-09-21T12:50:48;18.20;91.40
20829;DHT22;10575;50.124;8.582;2022-09-21T12:53:23;17.90;90.10
20829;DHT22;10575;50.124;8.582;2022-09-21T12:56:04;17.70;86.90
20829;DHT22;10575;50.124;8.582;2022-09-21T13:04:16;17.40;90.70
20829;DHT22;10575;50.124;8.582;2022-09-21T13:09:34;17.50;92.40
20829;DHT22;10575;50.124;8.582;2022-09-21T13:12:09;17.60;92.60
20829;DHT22;10575;50.124;8.582;2022-09-21T13:14:46;17.70;90.00
20829;DHT22;10575;50.124;8.582;2022-09-21T13:17:20;17.70;88.30
20829;DHT22;10575;50.124;8.582;2022-09-21T13:19:57;17.70;86.50
20829;DHT22;10575;50.124;8.582;2022-09-21T13:22:25;17.60;87.70
20829;DHT22;10575;50.124;8.582;2022-09-21T13:25:18;17.80;87.00
20829;DHT22;10575;50.124;8.582;2022-09-21T13:30:49;17.90;84.70
20829;DHT22;10575;50.124;8.582;2022-09-21T13:33:37;18.00;85.20
20829;DHT22;10575;50.124;8.582;2022-09-21T13:36:30;18.20;84.60
20829;DHT22;10575;50.124;8.582;2022-09-21T13:39:04;18.20;85.90
20829;DHT22;10575;50.124;8.582;2022-09-21T13:41:37;18.40;85.00
20829;DHT22;10575;50.124;8.582;2022-09-21T13:44:36;18.40;85.60
20829;DHT22;10575;50.124;8.582;2022-09-21T13:47:03;18.30;86.30
20829;DHT22;10575;50.124;8.582;2022-09-21T13:49:41;18.20;86.90
20829;DHT22;10575;50.124;8.582;2022-09-21T13:54:51;18.10;89.50
20829;DHT22;10575;50.124;8.582;2022-09-21T13:57:40;18.20;88.40
20829;DHT22;10575;50.124;8.582;2022-09-21T14:02:55;18.40;84.50
20829;DHT22;10575;50.124;8.582;2022-09-21T14:16:48;18.60;86.80
20829;DHT22;10575;50.124;8.582;2022-09-21T14:27:37;19.10;78.90
20829;DHT22;10575;50.124;8.582;2022-09-21T14:30:23;19.30;79.70
20829;DHT22;10575;50.124;8.582;2022-09-21T14:35:26;19.10;82.10
20829;DHT22;10575;50.124;8.582;2022-09-21T14:37:58;18.90;83.90
20829;DHT22;10575;50.124;8.582;2022-09-21T14:40:27;18.80;84.20
20829;DHT22;10575;50.124;8.582;2022-09-21T14:42:57;18.80;82.10
20829;DHT22;10575;50.124;8.582;2022-09-21T14:45:54;18.70;84.30
20829;DHT22;10575;50.124;8.582;2022-09-21T14:50:55;18.70;83.70
20829;DHT22;10575;50.124;8.582;2022-09-21T14:53:50;18.70;84.50
20829;DHT22;10575;50.124;8.582;2022-09-21T14:56:42;18.70;86.10
20829;DHT22;10575;50.124;8.582;2022-09-21T14:59:27;18.60;86.70
20829;DHT22;10575;50.124;8.582;2022-09-21T15:02:25;18.50;87.20
20829;DHT22;10575;50.124;8.582;2022-09-21T15:10:26;18.00;87.70
20829;DHT22;10575;50.124;8.582;2022-09-21T15:18:29;17.90;90.40
20829;DHT22;10575;50.124;8.582;2022-09-21T15:21:02;17.80;91.20
20829;DHT22;10575;50.124;8.582;2022-09-21T15:23:38;17.90;90.50
20829;DHT22;10575;50.124;8.582;2022-09-21T15:26:08;17.90;90.60
20829;DHT22;10575;50.124;8.582;2022-09-21T15:28:37;18.00;91.00
20829;DHT22;10575;50.124;8.582;2022-09-21T15:31:04;18.10;91.50
20829;DHT22;10575;50.124;8.582;2022-09-21T15:33:38;18.10;91.00
20829;DHT22;10575;50.124;8.582;2022-09-21T15:36:06;18.20;90.10
20829;DHT22;10575;50.124;8.582;2022-09-21T15:38:33;18.30;90.00
20829;DHT22;10575;50.124;8.582;2022-09-21T15:41:01;18.30;84.90
20829;DHT22;10575;50.124;8.582;2022-09-21T15:43:27;18.40;85.20
20829;DHT22;10575;50.124;8.582;2022-09-21T15:45:53;18.50;84.90
20829;DHT22;10575;50.124;8.582;2022-09-21T15:48:39;18.50;85.00
20829;DHT22;10575;50.124;8.582;2022-09-21T15:51:22;18.40;87.80
20829;DHT22;10575;50.124;8.582;2022-09-21T15:53:59;18.40;88.00
20829;DHT22;10575;50.124;8.582;2022-09-21T15:56:29;18.50;86.70
20829;DHT22;10575;50.124;8.582;2022-09-21T15:59:00;18.50;87.10
20829;DHT22;10575;50.124;8.582;2022-09-21T16:01:38;18.50;85.70
20829;DHT22;10575;50.124;8.582;2022-09-21T16:04:07;18.60;84.50
20829;DHT22;10575;50.124;8.582;2022-09-21T16:06:38;18.50;84.60
20829;DHT22;10575;50.124;8.582;2022-09-21T16:11:51;18.30;90.00
20829;DHT22;10575;50.124;8.582;2022-09-21T16:14:18;18.40;86.50
20829;DHT22;10575;50.124;8.582;2022-09-21T16:22:30;18.30;86.50
20829;DHT22;10575;50.124;8.582;2022-09-21T16:25:00;18.10;87.80
20829;DHT22;10575;50.124;8.582;2022-09-21T16:27:28;17.90;89.40
20829;DHT22;10575;50.124;8.582;2022-09-21T16:29:55;17.80;90.10
20829;DHT22;10575;50.124;8.582;2022-09-21T16:35:20;17.60;90.80
20829;DHT22;10575;50.124;8.582;2022-09-21T16:37:46;17.50;90.90
20829;DHT22;10575;50.124;8.582;2022-09-21T16:40:11;17.40;90.90
20829;DHT22;10575;50.124;8.582;2022-09-21T16:42:38;17.30;91.60
20829;DHT22;10575;50.124;8.582;2022-09-21T16:45:11;17.30;91.60
20829;DHT22;10575;50.124;8.582;2022-09-21T16:47:40;17.20;91.90
20829;DHT22;10575;50.124;8.582;2022-09-21T16:50:11;17.10;92.80
20829;DHT22;10575;50.124;8.582;2022-09-21T16:52:36;17.00;92.60
20829;DHT22;10575;50.124;8.582;2022-09-21T16:55:02;16.90;93.50
20829;DHT22;10575;50.124;8.582;2022-09-21T16:57:28;16.90;93.60
20829;DHT22;10575;50.124;8.582;2022-09-21T16:59:54;16.80;94.00
20829;DHT22;10575;50.124;8.582;2022-09-21T17:02:19;16.80;93.40
20829;DHT22;10575;50.124;8.582;2022-09-21T17:04:45;16.70;93.70
20829;DHT22;10575;50.124;8.582;2022-09-21T17:07:13;16.70;93.80
20829;DHT22;10575;50.124;8.582;2022-09-21T17:09:43;16.60;94.40
20829;DHT22;10575;50.124;8.582;2022-09-21T17:12:13;16.50;95.10
20829;DHT22;10575;50.124;8.582;2022-09-21T17:14:39;16.40;95.00
20829;DHT22;10575;50.124;8.582;2022-09-21T17:17:17;16.40;96.30
20829;DHT22;10575;50.124;8.582;2022-09-21T17:19:44;16.30;97.00
20829;DHT22;10575;50.124;8.582;2022-09-21T17:22:11;16.20;98.00
20829;DHT22;10575;50.124;8.582;2022-09-21T17:24:42;16.20;98.30
20829;DHT22;10575;50.124;8.582;2022-09-21T17:27:10;16.20;98.40
20829;DHT22;10575;50.124;8.582;2022-09-21T17:29:37;16.10;98.70
20829;DHT22;10575;50.124;8.582;2022-09-21T17:32:08;16.20;98.60
20829;DHT22;10575;50.124;8.582;2022-09-21T17:34:34;16.10;97.90
20829;DHT22;10575;50.124;8.582;2022-09-21T17:37:00;16.10;99.20
20829;DHT22;10575;50.124;8.582;2022-09-21T17:39:25;16.10;99.70
20829;DHT22;10575;50.124;8.582;2022-09-21T17:41:55;16.00;99.90
20829;DHT22;10575;50.124;8.582;2022-09-21T17:46:59;15.90;99.90
20829;DHT22;10575;50.124;8.582;2022-09-21T17:49:29;15.90;99.90
20829;DHT22;10575;50.124;8.582;2022-09-21T17:51:55;15.90;99.90
20829;DHT22;10575;50.124;8.582;2022-09-21T17:54:53;15.90;99.90
20829;DHT22;10575;50.124;8.582;2022-09-21T17:57:46;15.90;99.90
20829;DHT22;10575;50.124;8.582;2022-09-21T18:00:18;15.80;99.90
20829;DHT22;10575;50.124;8.582;2022-09-21T18:02:45;15.80;99.90
20829;DHT22;10575;50.124;8.582;2022-09-21T18:05:24;15.70;99.90
20829;DHT22;10575;50.124;8.582;2022-09-21T18:07:50;15.70;99.90
20829;DHT22;10575;50.124;8.582;2022-09-21T18:10:21;15.70;99.90
20829;DHT22;10575;50.124;8.582;2022-09-21T18:13:01;15.60;99.90
20829;DHT22;10575;50.124;8.582;2022-09-21T18:16:01;15.60;99.90
20829;DHT22;10575;50.124;8.582;2022-09-21T18:18:39;15.50;99.90
20829;DHT22;10575;50.124;8.582;2022-09-21T18:21:21;15.40;99.90
20829;DHT22;10575;50.124;8.582;2022-09-21T18:24:16;15.30;99.90
20829;DHT22;10575;50.124;8.582;2022-09-21T18:26:44;15.20;99.90
20829;DHT22;10575;50.124;8.582;2022-09-21T18:29:39;15.00;99.90
20829;DHT22;10575;50.124;8.582;2022-09-21T18:35:12;14.90;99.90